Ignacio, CO (81137)

12:28 PM MDT on August 31, 2015 (GMT -0600)
Durango-La Plata County | | Change Station
CLOSE
Current Station
Airport
Location: Durango,
Elevation: 6683 ft
Nearby Weather Stations

Elev 6683 ft 37.14 °N, 107.76 °W | Updated 35 minutes ago

Overcast
Overcast
70 °F
Feels Like 70 °F
N
4
Wind Variable Wind from WSW

Today
High -- | Low -- °F
--% Chance of Precip.
Yesterday
High -- | Low -- °F
Precip. -- in
6:40 AM 7:40 PM
Waning Gibbous, 94% visible
Pressure 30.05 in
Visibility 10.0 miles
Clouds Overcast 11000 ft
Dew Point 48 °F
Humidity 46%
Rainfall 0.00 in
Snow Depth Not available.
UV 3 out of 12
Pollen 6.90 out of 12
Air Quality Not available.
Flu Activity Not available.
METAR KDRO 311753Z AUTO 24003KT 10SM OVC110 21/09 A3029 RMK AO2 SLP175 T02110089 10211 20111 51003
Pressure 30.05 in
Visibility 10.0 miles
Clouds Overcast 11000 ft
Dew Point 48 °F
Humidity 46%
Rainfall 0.00 in
Snow Depth Not available.
UV 3 out of 12
Pollen 6.90 out of 12
Air Quality Not available.
Flu Activity Not available.
METAR KDRO 311753Z AUTO 24003KT 10SM OVC110 21/09 A3029 RMK AO2 SLP175 T02110089 10211 20111 51003

10-Day Weather Forecast

×

Almanac

Astronomy

Aug. 31, 2015 Rise Set
Actual Time
Civil Twilight
Nautical Twilight
Astronomical Twilight
Moon
Length of Visible Light
Length of Day
Tomorrow will be .
, % of the Moon is Illuminated

Today's Extremes

State Highs State Lows

Community

WunderPhotos

Upload Photos

1,851,330 photos uploaded!

WunderBlogs® & News

Nearby

Air Quality

  Air Quality AQ Index Pollutant
Not available.

Snow Depth

Station Depth Elevation

Earthquake Activity

City Distance Mag. Time & Date
Minimum magnitude displayed is 2.5.

Coastal Water Temperatures

Place Temperature

Stations

Nearby Weather Stations

Station Location Temp. Windchill Dew Point Humidity Wind Precip. Elev Updated Type